Time;durP1;ratioP1;P1;durP2;ratioP2;P2;SDS_P1;SDS_P2;PMS_P1;PMS_P2;Temp;Humidity;BMP_temperature;BMP_pressure;BME280_temperature;BME280_humidity;BME280_pressure;Samples;Min_cycle;Max_cycle;Signal;HPM_P1;HPM_P2
2022/09/25 00:02:11;;;;;;;3.60;3.30;;;;;;;-143.84;67.90;45106.19;5089748;28;20433;-73
2022/09/25 00:04:38;;;;;;;5.03;3.57;;;;;;;-143.84;68.44;45090.97;5089419;28;21314;-73
2022/09/25 00:07:05;;;;;;;3.40;3.10;;;;;;;-143.84;68.78;45075.72;5071393;28;20475;-73
2022/09/25 00:09:32;;;;;;;3.40;2.97;;;;;;;-143.84;68.90;45077.63;5089320;28;20447;-73
2022/09/25 00:12:01;;;;;;;3.53;3.23;;;;;;;-143.84;69.28;45071.91;5089711;28;20818;-73
2022/09/25 00:14:28;;;;;;;3.90;3.37;;;;;;;-143.84;69.60;45079.53;5089325;28;20439;-73
2022/09/25 00:16:55;;;;;;;7.77;3.60;;;;;;;-143.84;69.75;45087.16;5089206;28;20436;-73
2022/09/25 00:22:07;;;;;;;5.93;3.53;;;;;;;-143.84;70.23;45083.34;5089354;28;20446;-73
2022/09/25 00:24:35;;;;;;;4.90;3.37;;;;;;;-143.84;70.28;45096.66;5089252;28;21433;-73
2022/09/25 00:27:07;;;;;;;4.77;3.13;;;;;;;-143.84;70.23;45077.63;5089551;28;20507;-73
2022/09/25 00:29:36;;;;;;;3.57;3.27;;;;;;;-143.84;70.28;45087.16;5089130;28;20443;-72
2022/09/25 00:32:03;;;;;;;3.10;2.87;;;;;;;-143.84;70.11;45081.44;5089046;28;21301;-72
2022/09/25 00:34:31;;;;;;;4.33;2.97;;;;;;;-143.84;70.11;45066.22;5089042;28;20968;-72
2022/09/25 00:36:58;;;;;;;3.00;2.80;;;;;;;-143.84;70.09;45083.34;5089063;28;20443;-72
2022/09/25 00:39:26;;;;;;;3.83;3.13;;;;;;;-143.84;69.98;45085.25;5088922;28;20451;-72
2022/09/25 00:41:54;;;;;;;3.23;3.03;;;;;;;-143.84;69.89;45092.88;5088925;28;20435;-73
2022/09/25 00:45:00;;;;;;;4.00;3.37;;;;;;;-143.84;70.31;45094.78;5081336;28;20476;-73
2022/09/25 00:47:47;;;;;;;3.87;3.30;;;;;;;-143.84;70.53;45087.16;5068499;28;20485;-73
2022/09/25 00:50:29;;;;;;;3.90;3.40;;;;;;;-143.84;70.99;45085.25;5071149;28;20463;-73
2022/09/25 00:53:02;;;;;;;7.80;3.30;;;;;;;-143.84;71.19;45068.13;5072139;28;21384;-73
2022/09/25 00:55:31;;;;;;;4.40;3.63;;;;;;;-143.84;71.23;45096.66;5072010;28;20535;-73
2022/09/25 00:58:02;;;;;;;3.80;3.60;;;;;;;-143.84;71.28;45081.44;5071331;28;20813;-73
2022/09/25 01:00:29;;;;;;;3.97;3.57;;;;;;;-143.84;71.34;45085.25;5052315;28;20459;-73
2022/09/25 01:02:58;;;;;;;4.00;3.70;;;;;;;-143.84;71.12;45077.63;5052142;28;20963;-73
2022/09/25 01:05:29;;;;;;;3.40;3.10;;;;;;;-143.84;71.10;45090.97;5052475;28;20518;-73
2022/09/25 01:07:59;;;;;;;3.63;3.43;;;;;;;-143.84;71.37;45064.31;5052040;28;20483;-73
2022/09/25 01:10:26;;;;;;;7.27;3.60;;;;;;;-143.84;71.34;45089.06;5052893;28;20443;-73
2022/09/25 01:12:55;;;;;;;5.80;3.60;;;;;;;-143.84;71.49;45085.25;5052285;28;20436;-73
2022/09/25 01:15:28;;;;;;;4.00;3.70;;;;;;;-143.84;71.76;45106.19;5052156;28;20482;-73
2022/09/25 01:18:07;;;;;;;5.00;3.40;;;;;;;-143.84;71.76;45083.34;5052241;28;20530;-73
2022/09/25 01:21:15;;;;;;;4.90;3.20;;;;;;;-143.84;71.45;45087.16;5058409;28;20463;-73
2022/09/25 01:24:19;;;;;;;4.20;3.90;;;;;;;-143.84;71.44;45090.97;5065370;28;20506;-73
2022/09/25 01:27:40;;;;;;;5.97;3.43;;;;;;;-143.84;71.90;45092.88;5071727;28;20483;-73
2022/09/25 01:30:12;;;;;;;3.80;3.50;;;;;;;-143.84;72.36;45089.06;4989462;28;20531;-73
2022/09/25 01:32:50;;;;;;;3.97;3.67;;;;;;;-143.84;72.73;45106.19;5068355;28;20452;-73
2022/09/25 01:35:26;;;;;;;4.07;3.80;;;;;;;-143.84;73.04;45106.19;5071595;28;20452;-73
2022/09/25 01:37:58;;;;;;;4.17;3.87;;;;;;;-143.84;73.45;45104.28;5070626;28;20447;-73
2022/09/25 01:40:32;;;;;;;5.67;4.33;;;;;;;-143.84;74.07;45079.53;5071340;28;20748;-73
2022/09/25 01:43:12;;;;;;;5.53;4.10;;;;;;;-143.84;74.11;45092.88;5071757;28;20443;-73
2022/09/25 01:45:46;;;;;;;3.60;3.30;;;;;;;-143.84;74.15;45079.53;5089903;28;21056;-73
2022/09/25 01:48:18;;;;;;;3.83;3.53;;;;;;;-143.84;74.28;45083.34;5084262;28;20475;-73
2022/09/25 01:50:50;;;;;;;6.90;4.00;;;;;;;-143.84;74.56;45094.78;5092082;28;20515;-74
2022/09/25 01:53:24;;;;;;;5.77;4.30;;;;;;;-143.84;74.58;45090.97;5091761;28;20503;-73
2022/09/25 01:55:56;;;;;;;4.43;4.13;;;;;;;-143.84;74.78;45089.06;5091463;28;20439;-72
2022/09/25 01:58:28;;;;;;;10.33;4.37;;;;;;;-143.84;74.99;45094.78;5091950;28;20444;-73
2022/09/25 02:01:02;;;;;;;4.10;3.83;;;;;;;-143.84;75.21;45111.91;5090917;28;20450;-73
2022/09/25 02:03:36;;;;;;;4.10;3.80;;;;;;;-143.84;75.48;45115.72;5091598;28;20435;-73
2022/09/25 02:06:06;;;;;;;5.93;4.90;;;;;;;-143.84;75.68;45094.78;5091396;28;20437;-72
2022/09/25 02:08:37;;;;;;;7.17;4.33;;;;;;;-143.84;75.86;45100.47;5091638;28;20480;-72
2022/09/25 02:11:06;;;;;;;8.50;3.90;;;;;;;-143.84;75.85;45113.81;5091331;28;20443;-73
2022/09/25 02:13:40;;;;;;;7.30;3.70;;;;;;;-143.84;75.95;45096.66;5091210;28;20457;-73
2022/09/25 02:16:12;;;;;;;4.30;3.83;;;;;;;-143.84;75.86;45094.78;5091287;28;20446;-73
2022/09/25 02:21:29;;;;;;;6.43;4.50;;;;;;;-143.84;75.81;45094.78;5091491;28;20573;-73
2022/09/25 02:24:09;;;;;;;8.03;3.90;;;;;;;-143.84;76.03;45121.44;5091599;28;20434;-73
2022/09/25 02:26:37;;;;;;;4.70;4.30;;;;;;;-143.84;76.11;45085.25;5091072;28;20852;-72
2022/09/25 02:29:06;;;;;;;4.13;3.80;;;;;;;-143.84;76.06;45087.16;5090915;28;20440;-73
2022/09/25 02:31:39;;;;;;;7.77;4.00;;;;;;;-143.84;76.15;45083.34;5090989;28;20945;-73
2022/09/25 02:34:06;;;;;;;4.80;4.10;;;;;;;-143.84;76.18;45110.00;5091043;28;20427;-72
2022/09/25 02:36:34;;;;;;;4.90;4.20;;;;;;;-143.84;76.08;45077.63;5090997;28;20535;-73
2022/09/25 02:39:04;;;;;;;8.90;4.50;;;;;;;-143.84;76.20;45062.41;5090701;28;20439;-73
2022/09/25 02:41:47;;;;;;;4.93;4.57;;;;;;;-143.84;76.12;45079.53;5090840;28;20470;-73
2022/09/25 02:44:24;;;;;;;5.37;4.23;;;;;;;-143.84;76.06;45090.97;5082884;28;20482;-73
2022/09/25 02:47:07;;;;;;;4.83;4.43;;;;;;;-143.84;75.95;45106.19;5090590;28;20972;-73
2022/09/25 02:49:47;;;;;;;7.07;5.00;;;;;;;-143.84;75.69;45096.66;5090504;28;20941;-73
2022/09/25 02:52:21;;;;;;;6.40;4.40;;;;;;;-143.84;75.70;45089.06;5082747;28;20438;-72
2022/09/25 02:54:54;;;;;;;6.30;4.10;;;;;;;-143.84;75.21;45098.56;5090635;28;20499;-73
2022/09/25 02:57:29;;;;;;;5.07;4.70;;;;;;;-143.84;75.07;45087.16;5090632;28;20500;-73
2022/09/25 03:00:03;;;;;;;4.50;4.20;;;;;;;-143.84;74.84;45117.63;5090461;28;20438;-73
2022/09/25 03:02:33;;;;;;;4.90;4.50;;;;;;;-143.84;74.66;45087.16;5090313;28;20444;-73
2022/09/25 03:05:04;;;;;;;6.90;5.27;;;;;;;-143.84;74.69;45087.16;5090156;28;20497;-73
2022/09/25 03:08:36;;;;;;;9.40;6.27;;;;;;;-143.84;74.50;45115.72;5090268;28;21009;-73
2022/09/25 03:10:19;;;;;;;65.10;38.70;;;;;;;-143.84;75.12;45102.38;5090235;28;20441;-72
2022/09/25 03:12:47;;;;;;;21.73;17.43;;;;;;;-143.84;75.58;45081.44;5088966;28;20456;-73
2022/09/25 03:15:14;;;;;;;16.23;14.40;;;;;;;-143.84;75.58;45090.97;5090334;28;20440;-73
2022/09/25 03:17:43;;;;;;;22.90;15.37;;;;;;;-143.84;76.47;45090.97;5090130;28;20439;-73
2022/09/25 03:20:10;;;;;;;18.80;11.37;;;;;;;-143.84;77.44;45089.06;5081804;28;20468;-72
2022/09/25 03:22:38;;;;;;;12.00;9.17;;;;;;;-143.84;77.43;45087.16;5089760;28;20504;-73
2022/09/25 03:25:06;;;;;;;9.03;6.60;;;;;;;-143.84;77.65;45106.19;5089808;28;20533;-72
2022/09/25 03:27:33;;;;;;;8.30;5.90;;;;;;;-143.84;78.08;45106.19;5089758;28;20539;-73
2022/09/25 03:30:01;;;;;;;5.73;5.23;;;;;;;-143.84;78.11;45098.56;5089958;28;20441;-72
2022/09/25 03:32:28;;;;;;;6.20;4.60;;;;;;;-143.84;78.94;45104.28;5090275;28;20442;-72
2022/09/25 03:34:57;;;;;;;6.70;4.63;;;;;;;-143.84;79.14;45106.19;5089714;28;20492;-72
2022/09/25 03:37:25;;;;;;;11.63;4.77;;;;;;;-143.84;79.22;45111.91;5089555;28;20468;-72
2022/09/25 03:39:52;;;;;;;6.70;5.20;;;;;;;-143.84;79.51;45094.78;5089741;28;20445;-72
2022/09/25 03:42:19;;;;;;;5.20;4.70;;;;;;;-143.84;79.41;45090.97;5089884;28;21256;-73
2022/09/25 03:44:46;;;;;;;4.43;4.13;;;;;;;-143.84;79.42;45096.66;5089733;28;20494;-72
2022/09/25 03:47:13;;;;;;;5.17;4.07;;;;;;;-143.84;79.50;45073.81;5072738;28;21294;-72
2022/09/25 03:49:40;;;;;;;8.87;4.37;;;;;;;-143.84;78.88;45110.00;5069554;28;21217;-73
2022/09/25 03:52:11;;;;;;;6.20;4.80;;;;;;;-143.84;78.15;45098.56;5068491;28;20450;-72
2022/09/25 03:54:38;;;;;;;4.03;3.70;;;;;;;-143.84;78.03;45092.88;5068559;28;20448;-73
2022/09/25 03:57:06;;;;;;;4.90;3.93;;;;;;;-143.84;76.45;45096.66;5068027;28;20501;-73
2022/09/25 03:59:33;;;;;;;7.30;4.67;;;;;;;-143.84;76.06;45083.34;5068966;28;20915;-73
2022/09/25 04:02:01;;;;;;;4.23;3.97;;;;;;;-143.84;75.05;45090.97;5069063;28;20438;-72
2022/09/25 04:04:28;;;;;;;11.70;4.07;;;;;;;-143.84;75.15;45111.91;5069243;28;20444;-71
2022/09/25 04:06:56;;;;;;;6.80;4.30;;;;;;;-143.84;75.43;45102.38;5068749;28;20457;-72
2022/09/25 04:09:24;;;;;;;4.23;3.83;;;;;;;-143.84;75.59;45090.97;5073600;28;20436;-72
2022/09/25 04:11:54;;;;;;;4.03;3.83;;;;;;;-143.84;76.00;45094.78;5088940;28;20506;-72
2022/09/25 04:14:21;;;;;;;11.33;5.10;;;;;;;-143.84;76.14;45079.53;5089489;28;20440;-73
2022/09/25 04:16:48;;;;;;;10.47;5.00;;;;;;;-143.84;76.29;45087.16;5089010;28;20491;-73
2022/09/25 04:19:15;;;;;;;8.60;4.60;;;;;;;-143.84;76.43;45108.09;5072105;28;20445;-72
2022/09/25 04:21:42;;;;;;;10.83;4.57;;;;;;;-143.84;76.33;45098.56;5068775;28;20445;-73
2022/09/25 04:26:56;;;;;;;5.63;5.13;;;;;;;-143.84;76.46;45089.06;5069086;28;20428;-73
2022/09/25 04:29:23;;;;;;;14.50;4.47;;;;;;;-143.84;76.99;45104.28;5068070;28;20494;-73
2022/09/25 04:34:32;;;;;;;12.67;4.37;;;;;;;-143.84;77.67;45100.47;5069121;28;20432;-73
2022/09/25 04:36:59;;;;;;;4.80;4.40;;;;;;;-143.84;77.69;45102.38;5078703;28;20994;-73
2022/09/25 04:39:27;;;;;;;5.40;4.90;;;;;;;-143.84;77.88;45087.16;5076380;28;20439;-73
2022/09/25 04:41:54;;;;;;;5.70;5.20;;;;;;;-143.84;77.86;45089.06;5079180;28;20814;-73
2022/09/25 04:44:23;;;;;;;11.37;5.40;;;;;;;-143.84;78.03;45113.81;5073372;28;20475;-72
2022/09/25 04:46:50;;;;;;;6.83;4.33;;;;;;;-143.84;78.52;45113.81;5068185;28;20519;-72
2022/09/25 04:49:18;;;;;;;10.83;5.47;;;;;;;-143.84;79.16;45081.44;5065911;28;21023;-72
2022/09/25 04:51:45;;;;;;;5.33;4.50;;;;;;;-143.84;80.47;45106.19;5068483;28;20456;-72
2022/09/25 04:54:13;;;;;;;10.90;5.20;;;;;;;-143.84;80.83;45094.78;5060917;28;20429;-72
2022/09/25 04:56:40;;;;;;;6.13;4.70;;;;;;;-143.84;79.29;45073.81;5068562;28;20918;-72
2022/09/25 04:59:07;;;;;;;4.67;4.27;;;;;;;-143.84;78.25;45092.88;5068354;28;20436;-74
2022/09/25 05:01:36;;;;;;;5.60;4.90;;;;;;;-143.84;76.79;45090.97;5068273;28;20440;-73
2022/09/25 05:04:03;;;;;;;5.27;3.93;;;;;;;-143.84;74.78;45090.97;5068106;28;20440;-73
2022/09/25 05:06:30;;;;;;;9.33;4.77;;;;;;;-143.84;72.63;45073.81;5068445;28;20443;-73
2022/09/25 05:08:58;;;;;;;5.57;4.43;;;;;;;-143.84;71.11;45037.66;5067983;28;20470;-73
2022/09/25 05:11:25;;;;;;;4.57;4.23;;;;;;;-143.84;69.28;45071.91;5068554;28;20435;-73
2022/09/25 05:13:53;;;;;;;4.80;3.70;;;;;;;-143.84;67.25;45068.13;5067573;28;20527;-74
2022/09/25 05:16:20;;;;;;;10.47;3.80;;;;;;;-143.84;66.59;45077.63;5067385;28;20792;-73
2022/09/25 05:18:49;;;;;;;7.60;3.47;;;;;;;-143.84;66.21;45068.13;5068022;28;20437;-73
2022/09/25 05:21:16;;;;;;;3.97;3.70;;;;;;;-143.84;63.74;45062.41;5068731;28;20445;-73
2022/09/25 05:23:43;;;;;;;5.70;4.10;;;;;;;-143.84;63.40;45066.22;5068053;28;20462;-73
2022/09/25 05:26:10;;;;;;;5.47;3.60;;;;;;;-143.84;61.48;45064.31;5068039;28;20441;-73
2022/09/25 05:28:37;;;;;;;4.33;3.93;;;;;;;-143.84;61.86;45075.72;5067990;28;20487;-74
2022/09/25 05:31:05;;;;;;;7.50;4.27;;;;;;;-143.84;61.08;45068.13;5067839;28;20506;-74
2022/09/25 05:33:34;;;;;;;15.50;4.30;;;;;;;-143.84;61.29;45049.06;5067909;28;20494;-74
2022/09/25 05:36:04;;;;;;;10.90;3.50;;;;;;;-143.84;60.36;45087.16;5068591;28;20491;-72
2022/09/25 05:38:33;;;;;;;4.17;3.47;;;;;;;-143.84;59.64;45049.06;5071755;28;20445;-75
2022/09/25 05:41:03;;;;;;;5.13;3.83;;;;;;;-143.84;57.22;45037.66;5072046;28;20445;-72
2022/09/25 05:43:31;;;;;;;6.20;3.33;;;;;;;-143.84;53.16;45043.34;5071785;28;20506;-76
2022/09/25 05:45:58;;;;;;;4.17;3.87;;;;;;;-143.84;50.73;45049.06;5090046;28;20466;-74
2022/09/25 05:48:26;;;;;;;5.83;3.57;;;;;;;-143.84;48.43;45054.78;5091580;28;20475;-76
2022/09/25 05:50:54;;;;;;;5.40;3.30;;;;;;;-143.84;46.39;45003.38;5091678;28;20783;-71
2022/09/25 05:53:23;;;;;;;7.33;4.80;;;;;;;-143.84;47.12;45045.25;5088857;28;20452;-76
2022/09/25 05:55:50;;;;;;;3.53;3.30;;;;;;;-143.84;46.21;45030.03;5083595;28;20444;-73
2022/09/25 05:58:18;;;;;;;4.20;3.20;;;;;;;-143.84;45.94;45037.66;5090899;28;20436;-71
2022/09/25 06:00:45;;;;;;;3.50;3.20;;;;;;;-143.84;43.64;45016.69;5087589;28;20432;-71
2022/09/25 06:03:13;;;;;;;4.80;4.10;;;;;;;-143.84;43.71;45041.44;5089721;28;20502;-70
2022/09/25 06:05:40;;;;;;;3.43;3.23;;;;;;;-143.84;43.99;45030.03;5072640;28;20523;-72
2022/09/25 06:08:07;;;;;;;5.43;4.17;;;;;;;-143.84;43.70;45018.59;5070629;28;20550;-70
2022/09/25 06:10:36;;;;;;;4.47;4.07;;;;;;;-143.84;43.37;45033.84;5071032;28;20433;-70
2022/09/25 06:13:04;;;;;;;3.73;3.33;;;;;;;-143.84;43.24;45016.69;5071045;28;20968;-72
2022/09/25 06:15:36;;;;;;;3.73;3.03;;;;;;;-143.84;43.24;45031.94;5070297;28;20498;-70
2022/09/25 06:18:04;;;;;;;4.27;3.87;;;;;;;-143.84;42.00;45022.41;5071067;28;20468;-73
2022/09/25 06:20:32;;;;;;;3.90;3.60;;;;;;;-143.84;42.12;45028.13;5071590;28;20497;-76
2022/09/25 06:22:59;;;;;;;3.40;3.20;;;;;;;-143.84;41.95;45020.50;5071502;28;21280;-72
2022/09/25 06:25:28;;;;;;;5.60;3.30;;;;;;;-143.84;42.05;45028.13;5071066;28;20873;-74
2022/09/25 06:27:59;;;;;;;3.10;2.90;;;;;;;-143.84;41.54;45018.59;5070597;28;20433;-76
2022/09/25 06:30:29;;;;;;;7.47;3.57;;;;;;;-143.84;40.78;45031.94;5069937;28;20445;-76
2022/09/25 06:32:58;;;;;;;2.97;2.80;;;;;;;-143.84;41.22;45028.13;5071589;28;20440;-75
2022/09/25 06:35:26;;;;;;;3.30;3.00;;;;;;;-143.84;41.12;45026.22;5071241;28;20443;-77
2022/09/25 06:37:56;;;;;;;3.80;3.50;;;;;;;-143.84;40.57;45010.97;5070954;28;20429;-71
2022/09/25 06:40:25;;;;;;;5.00;2.90;;;;;;;-143.84;40.45;45024.31;5069928;28;20911;-70
2022/09/25 06:42:57;;;;;;;8.83;3.53;;;;;;;-143.84;40.59;45005.28;5070605;28;20472;-71
2022/09/25 06:45:25;;;;;;;3.23;3.03;;;;;;;-143.84;39.89;45009.09;5083198;28;20545;-70
2022/09/25 06:47:56;;;;;;;16.30;3.43;;;;;;;-143.84;39.71;45014.78;5090387;28;20447;-70
2022/09/25 06:50:30;;;;;;;3.67;3.30;;;;;;;-143.84;39.66;45003.38;5090510;28;20452;-70
2022/09/25 06:52:58;;;;;;;3.63;3.30;;;;;;;-143.84;40.22;45016.69;5089715;28;20472;-70
2022/09/25 06:55:26;;;;;;;3.37;3.13;;;;;;;-143.84;39.88;45001.47;5089819;28;20519;-76
2022/09/25 06:57:53;;;;;;;4.37;3.13;;;;;;;-143.84;39.47;45016.69;5089468;28;20435;-75
2022/09/25 07:00:22;;;;;;;7.27;3.77;;;;;;;-143.84;39.57;45024.31;5089288;28;20563;-75
2022/09/25 07:05:34;;;;;;;6.03;4.10;;;;;;;-143.84;39.98;45024.31;5090869;28;20494;-77
2022/09/25 07:08:02;;;;;;;6.97;5.00;;;;;;;-143.84;39.95;45007.19;5090618;28;20450;-76
2022/09/25 07:10:29;;;;;;;3.77;3.47;;;;;;;-143.84;39.55;45014.78;5090231;28;20487;-76
2022/09/25 07:12:57;;;;;;;15.93;5.70;;;;;;;-143.84;39.52;44988.13;5090516;28;20440;-76
2022/09/25 07:15:25;;;;;;;8.17;6.53;;;;;;;-143.84;39.12;45014.78;5089889;28;20443;-75
2022/09/25 07:17:53;;;;;;;7.83;4.90;;;;;;;-143.84;38.33;44988.13;5090552;28;21001;-73
2022/09/25 07:20:21;;;;;;;6.13;4.50;;;;;;;-143.84;38.53;45018.59;5090071;28;20485;-73
2022/09/25 07:22:48;;;;;;;8.80;4.77;;;;;;;-143.84;38.08;45003.38;5089901;28;20439;-71
2022/09/25 07:25:15;;;;;;;5.23;4.73;;;;;;;-143.84;37.58;45012.88;5089426;28;20444;-71
2022/09/25 07:27:43;;;;;;;5.00;4.40;;;;;;;-143.84;38.49;44984.31;5070408;28;20440;-70
2022/09/25 07:30:11;;;;;;;5.07;4.67;;;;;;;-143.84;37.16;45012.88;5088856;28;20487;-71
2022/09/25 07:32:39;;;;;;;4.37;3.97;;;;;;;-143.84;37.32;44993.84;5091016;28;20436;-76
2022/09/25 07:35:07;;;;;;;5.27;4.40;;;;;;;-143.84;36.96;44988.13;5089975;28;20436;-75
2022/09/25 07:37:34;;;;;;;4.33;3.90;;;;;;;-143.84;37.02;45020.50;5090542;28;20478;-76
2022/09/25 07:40:02;;;;;;;4.63;4.20;;;;;;;-143.84;36.90;44993.84;5090633;28;20439;-76
2022/09/25 07:42:30;;;;;;;4.67;3.93;;;;;;;-143.84;37.24;44974.81;5090668;28;20439;-76
2022/09/25 07:44:57;;;;;;;4.73;4.10;;;;;;;-143.84;37.30;44978.63;5089858;28;20884;-77
2022/09/25 07:47:24;;;;;;;12.93;3.63;;;;;;;-143.84;38.16;44984.31;5090788;28;20432;-77
2022/09/25 07:49:53;;;;;;;4.57;4.17;;;;;;;-143.84;37.88;44993.84;5089660;28;20475;-74
2022/09/25 07:52:20;;;;;;;5.93;3.23;;;;;;;-143.84;37.86;45016.69;5089305;28;20446;-74
2022/09/25 07:54:47;;;;;;;5.77;3.30;;;;;;;-143.84;38.78;45007.19;5089316;28;20451;-74
2022/09/25 07:57:14;;;;;;;4.10;3.80;;;;;;;-143.84;39.95;44997.66;5089613;28;20846;-73
2022/09/25 07:59:41;;;;;;;8.33;3.43;;;;;;;-143.84;38.79;44982.41;5088050;28;20585;-73
2022/09/25 08:02:10;;;;;;;7.13;3.70;;;;;;;-143.84;38.47;44986.22;5089637;28;20530;-74
2022/09/25 08:04:37;;;;;;;3.97;3.50;;;;;;;-143.84;38.78;44988.13;5089101;28;20428;-74
2022/09/25 08:07:06;;;;;;;3.60;3.30;;;;;;;-143.84;38.24;44999.56;5078544;28;20506;-73
2022/09/25 08:09:33;;;;;;;5.33;3.67;;;;;;;-143.84;37.65;44997.66;5068897;28;20512;-74
2022/09/25 08:12:01;;;;;;;11.33;3.60;;;;;;;-143.84;37.82;44976.72;5069041;28;20437;-76
2022/09/25 08:14:28;;;;;;;6.17;4.07;;;;;;;-143.84;38.30;44990.03;5050598;28;20445;-73
2022/09/25 08:16:56;;;;;;;4.10;3.70;;;;;;;-143.84;37.53;44972.91;5048824;28;20495;-70
2022/09/25 08:19:23;;;;;;;3.90;3.60;;;;;;;-143.84;37.91;44991.94;5048862;28;20846;-71
2022/09/25 08:21:50;;;;;;;9.60;4.63;;;;;;;-143.84;38.86;45001.47;5048711;28;20443;-72
2022/09/25 08:24:19;;;;;;;3.80;3.50;;;;;;;-143.84;38.67;45009.09;5048841;28;20438;-71
2022/09/25 08:26:47;;;;;;;4.03;3.73;;;;;;;-143.84;38.88;45003.38;5048659;28;20993;-72
2022/09/25 08:29:14;;;;;;;4.50;4.30;;;;;;;-143.84;40.16;44993.84;5048423;28;20910;-71
2022/09/25 08:31:42;;;;;;;5.53;4.37;;;;;;;-143.84;40.12;44988.13;5047483;28;20446;-73
2022/09/25 08:34:10;;;;;;;4.40;3.50;;;;;;;-143.84;39.44;44995.75;5047629;28;20441;-72
2022/09/25 08:36:37;;;;;;;4.03;3.73;;;;;;;-143.84;39.78;45001.47;5047991;28;20437;-72
2022/09/25 08:39:04;;;;;;;3.47;3.27;;;;;;;-143.84;40.09;44982.41;5056428;28;21006;-72
2022/09/25 08:41:37;;;;;;;7.30;3.33;;;;;;;-143.84;38.51;45012.88;5067572;28;20437;-74
2022/09/25 08:44:10;;;;;;;4.77;3.67;;;;;;;-143.84;39.88;44991.94;5077434;28;20491;-72
2022/09/25 08:49:31;;;;;;;3.97;2.97;;;;;;;-143.84;40.47;45010.97;5075182;28;21024;-72
2022/09/25 08:52:02;;;;;;;4.03;3.80;;;;;;;-143.84;42.06;44997.66;5075338;28;20885;-71
2022/09/25 08:54:31;;;;;;;3.40;3.20;;;;;;;-143.84;41.28;45010.97;5087822;28;20476;-72
2022/09/25 08:57:05;;;;;;;3.43;3.13;;;;;;;-143.84;40.09;45031.94;5086349;28;20513;-72
2022/09/25 08:59:35;;;;;;;3.43;3.13;;;;;;;-143.84;40.81;45001.47;5086136;28;20825;-72
2022/09/25 09:02:12;;;;;;;3.80;3.50;;;;;;;-143.84;40.10;44984.31;5086284;28;20447;-72
2022/09/25 09:04:45;;;;;;;3.70;3.37;;;;;;;-143.84;41.70;45014.78;5087008;28;20881;-72
2022/09/25 09:07:20;;;;;;;3.87;3.57;;;;;;;-143.84;41.31;44995.75;5085753;28;20444;-72
2022/09/25 09:09:52;;;;;;;3.93;3.30;;;;;;;-143.84;39.43;44999.56;5087030;28;20536;-77
2022/09/25 09:12:28;;;;;;;6.03;2.87;;;;;;;-143.84;39.51;44974.81;5087086;28;20452;-77
2022/09/25 09:15:06;;;;;;;3.40;3.20;;;;;;;-143.84;39.89;45003.38;5089780;28;21033;-77
2022/09/25 09:17:41;;;;;;;8.63;2.97;;;;;;;-143.84;39.38;45007.19;5091495;28;20508;-76
2022/09/25 09:20:16;;;;;;;4.53;3.67;;;;;;;-143.84;39.36;44972.91;5090648;28;20451;-72
2022/09/25 09:22:49;;;;;;;3.30;2.80;;;;;;;-143.84;38.58;44999.56;5090643;28;20451;-72
2022/09/25 09:25:27;;;;;;;3.40;3.10;;;;;;;-143.84;39.36;45018.59;5090170;28;20450;-77
2022/09/25 09:28:19;;;;;;;3.50;2.83;;;;;;;-143.84;39.91;44971.00;5087379;28;20512;-72
2022/09/25 09:30:54;;;;;;;3.60;2.87;;;;;;;-143.84;39.24;45009.09;5090286;28;20503;-72
2022/09/25 09:33:34;;;;;;;3.60;3.40;;;;;;;-143.84;41.52;44984.31;5088168;28;20455;-73
2022/09/25 09:36:11;;;;;;;2.63;2.50;;;;;;;-143.84;40.30;45007.19;5090529;28;20458;-72
2022/09/25 09:38:48;;;;;;;3.63;3.30;;;;;;;-143.84;40.65;45001.47;5091720;28;20470;-71
2022/09/25 09:41:24;;;;;;;4.80;3.53;;;;;;;-143.84;42.31;44988.13;5090279;28;20451;-72
2022/09/25 09:44:23;;;;;;;5.87;3.53;;;;;;;-143.84;43.33;45014.78;5086329;28;20579;-76
2022/09/25 09:47:02;;;;;;;4.77;3.33;;;;;;;-143.84;45.93;44993.84;5068764;28;20441;-71
2022/09/25 09:49:36;;;;;;;3.20;3.00;;;;;;;-143.84;46.17;45001.47;5066759;28;20488;-71
2022/09/25 09:52:10;;;;;;;5.63;3.13;;;;;;;-143.84;47.98;45024.31;5078947;28;20830;-72
2022/09/25 09:54:45;;;;;;;5.70;2.80;;;;;;;-143.84;47.12;44991.94;5083793;28;20441;-72
2022/09/25 09:57:19;;;;;;;6.40;3.40;;;;;;;-143.84;46.55;45018.59;5074646;28;20903;-72
2022/09/25 09:59:52;;;;;;;4.20;3.40;;;;;;;-143.84;45.39;45022.41;5083753;28;20441;-72
2022/09/25 10:02:33;;;;;;;3.37;3.07;;;;;;;-143.84;44.45;45010.97;5083211;28;20448;-72
2022/09/25 10:05:05;;;;;;;5.73;3.00;;;;;;;-143.84;44.79;44995.75;5066058;28;20949;-72
2022/09/25 10:07:36;;;;;;;4.50;3.33;;;;;;;-143.84;45.24;45010.97;5080899;28;20451;-72
2022/09/25 10:10:11;;;;;;;7.70;2.87;;;;;;;-143.84;47.29;45016.69;5072242;28;20546;-72
2022/09/25 10:12:43;;;;;;;3.53;3.30;;;;;;;-143.84;47.43;45012.88;5075099;28;20444;-72
2022/09/25 10:15:18;;;;;;;3.67;3.17;;;;;;;-143.84;47.49;44988.13;5076112;28;20545;-72
2022/09/25 10:17:46;;;;;;;3.77;3.00;;;;;;;-143.84;47.46;45001.47;5078776;28;20463;-78
2022/09/25 10:20:18;;;;;;;3.80;3.40;;;;;;;-143.84;46.95;44993.84;5078741;28;20444;-79
2022/09/25 10:22:47;;;;;;;3.33;2.73;;;;;;;-143.84;46.85;45007.19;5081098;28;20443;-77
2022/09/25 10:25:14;;;;;;;9.53;3.07;;;;;;;-143.84;46.82;45007.19;5076282;28;20451;-78
2022/09/25 10:27:46;;;;;;;5.30;2.90;;;;;;;-143.84;45.93;45009.09;5072670;28;20460;-79
2022/09/25 10:30:19;;;;;;;7.60;3.50;;;;;;;-143.84;45.20;45030.03;5075157;28;20979;-78
2022/09/25 10:32:57;;;;;;;3.93;2.90;;;;;;;-143.84;46.40;44999.56;5077078;28;21070;-78
2022/09/25 10:35:28;;;;;;;7.57;3.43;;;;;;;-143.84;45.89;44995.75;5062999;28;20485;-77
2022/09/25 10:37:57;;;;;;;5.47;3.03;;;;;;;-143.84;46.27;45010.97;5068622;28;20445;-79
2022/09/25 10:40:28;;;;;;;3.50;3.20;;;;;;;-143.84;45.94;45001.47;5066330;28;20441;-79
2022/09/25 10:43:14;;;;;;;7.07;3.70;;;;;;;-143.84;47.19;44997.66;5077699;28;20533;-79
2022/09/25 10:45:43;;;;;;;3.43;3.13;;;;;;;-143.84;47.06;45010.97;5081525;28;20591;-79
2022/09/25 10:51:20;;;;;;;5.17;2.90;;;;;;;-143.84;43.70;45012.88;5064601;28;20510;-78
2022/09/25 10:53:49;;;;;;;6.13;3.80;;;;;;;-143.84;44.61;45003.38;5075340;28;20456;-79
2022/09/25 10:56:23;;;;;;;7.73;2.80;;;;;;;-143.84;43.19;45012.88;5076030;28;20444;-79
2022/09/25 10:58:54;;;;;;;3.60;3.00;;;;;;;-143.84;41.79;45018.59;5087198;28;20447;-76
2022/09/25 11:01:32;;;;;;;3.00;2.70;;;;;;;-143.84;40.74;45007.19;5082315;28;20532;-77
2022/09/25 11:04:00;;;;;;;5.00;2.90;;;;;;;-143.84;40.36;45020.50;5070938;28;20456;-77
2022/09/25 11:06:31;;;;;;;4.77;2.93;;;;;;;-143.84;41.33;45016.69;5068144;28;20951;-77
2022/09/25 11:09:06;;;;;;;5.27;3.00;;;;;;;-143.84;40.92;45020.50;5075786;28;20481;-77
2022/09/25 11:11:35;;;;;;;4.33;3.23;;;;;;;-143.84;42.00;45005.28;5074219;28;20508;-78
2022/09/25 11:14:05;;;;;;;7.20;2.90;;;;;;;-143.84;40.76;45045.25;5077773;28;20811;-77
2022/09/25 11:16:56;;;;;;;3.63;3.33;;;;;;;-143.84;41.81;45010.97;5072964;28;20461;-77
2022/09/25 11:19:28;;;;;;;3.37;3.00;;;;;;;-143.84;40.80;45020.50;5073782;28;20449;-77
2022/09/25 11:22:07;;;;;;;3.13;2.83;;;;;;;-143.84;41.18;45024.31;5075922;28;20916;-76
2022/09/25 11:24:51;;;;;;;4.40;3.57;;;;;;;-143.84;41.66;45016.69;5076985;28;20440;-77
2022/09/25 11:27:23;;;;;;;6.43;3.50;;;;;;;-143.84;43.08;45022.41;5074992;28;20452;-77
2022/09/25 11:30:00;;;;;;;3.03;2.83;;;;;;;-143.84;43.24;45031.94;5078305;28;20487;-77
2022/09/25 11:32:36;;;;;;;3.60;3.30;;;;;;;-143.84;43.32;45020.50;5073642;28;20900;-77
2022/09/25 11:35:19;;;;;;;3.57;3.27;;;;;;;-143.84;43.47;45009.09;5072668;28;21016;-77
2022/09/25 11:37:56;;;;;;;3.57;3.23;;;;;;;-143.84;43.94;45005.28;5077869;28;20437;-77
2022/09/25 11:43:35;;;;;;;5.60;3.67;;;;;;;-143.84;44.03;45018.59;5053223;28;20445;-77
2022/09/25 11:46:11;;;;;;;8.30;4.20;;;;;;;-143.84;44.24;45012.88;5073348;28;20432;-77
2022/09/25 11:48:50;;;;;;;3.60;3.30;;;;;;;-143.84;45.66;45022.41;5078533;28;20447;-77
2022/09/25 11:51:26;;;;;;;6.20;3.67;;;;;;;-143.84;45.08;45007.19;5072796;28;21032;-77
2022/09/25 11:54:05;;;;;;;3.83;3.40;;;;;;;-143.84;46.41;45016.69;5076246;28;20646;-77
2022/09/25 11:56:42;;;;;;;4.70;3.40;;;;;;;-143.84;48.27;45010.97;5078843;28;20511;-77
2022/09/25 11:59:23;;;;;;;5.30;3.90;;;;;;;-143.84;49.22;45012.88;5072910;28;20447;-77